Terminal Aerodrome Forecast
Issued by NWS

Current Version | Previous Version | Graphics & Text | Print | Product List | Glossary On
Versions: 1 2 3 4 5 6 7 8 9 10 11 12 13 14
000
FTUS41 KPBZ 221730
TAFMGW
TAF
KMGW 221730Z 2218/2318 32007G17KT P6SM SKC
     FM222300 VRB05KT P6SM SKC
     FM231500 14005KT P6SM FEW140=

USA.gov is the U.S. government's official web portal to all federal, state and local government web resources and services.